sensor_id;sensor_type;location;lat;lon;timestamp;P1;durP1;ratioP1;P2;durP2;ratioP2
58015;SDS011;43809;52.110;20.964;2023-05-17T00:00:23;6.00;;;4.50;;
58015;SDS011;43809;52.110;20.964;2023-05-17T00:02:24;5.18;;;4.40;;
58015;SDS011;43809;52.110;20.964;2023-05-17T00:04:24;4.50;;;4.07;;
58015;SDS011;43809;52.110;20.964;2023-05-17T00:06:24;4.78;;;4.28;;
58015;SDS011;43809;52.110;20.964;2023-05-17T00:08:24;4.40;;;4.00;;
58015;SDS011;43809;52.110;20.964;2023-05-17T00:10:24;3.20;;;2.87;;
58015;SDS011;43809;52.110;20.964;2023-05-17T00:12:25;3.50;;;3.20;;
58015;SDS011;43809;52.110;20.964;2023-05-17T00:14:25;3.20;;;2.90;;
58015;SDS011;43809;52.110;20.964;2023-05-17T00:16:25;3.05;;;2.75;;
58015;SDS011;43809;52.110;20.964;2023-05-17T00:18:25;3.27;;;2.93;;
58015;SDS011;43809;52.110;20.964;2023-05-17T00:20:25;3.40;;;3.20;;
58015;SDS011;43809;52.110;20.964;2023-05-17T00:22:26;3.80;;;3.20;;
58015;SDS011;43809;52.110;20.964;2023-05-17T00:24:26;5.68;;;4.68;;
58015;SDS011;43809;52.110;20.964;2023-05-17T00:26:26;7.17;;;5.33;;
58015;SDS011;43809;52.110;20.964;2023-05-17T00:28:29;6.80;;;5.57;;
58015;SDS011;43809;52.110;20.964;2023-05-17T00:32:29;4.68;;;4.15;;
58015;SDS011;43809;52.110;20.964;2023-05-17T00:34:29;4.40;;;3.50;;
58015;SDS011;43809;52.110;20.964;2023-05-17T00:38:40;3.78;;;3.40;;
58015;SDS011;43809;52.110;20.964;2023-05-17T00:40:40;4.43;;;3.57;;
58015;SDS011;43809;52.110;20.964;2023-05-17T00:42:40;4.40;;;4.00;;
58015;SDS011;43809;52.110;20.964;2023-05-17T00:44:40;5.60;;;5.10;;
58015;SDS011;43809;52.110;20.964;2023-05-17T00:46:41;5.70;;;5.20;;
58015;SDS011;43809;52.110;20.964;2023-05-17T00:48:41;5.47;;;4.97;;
58015;SDS011;43809;52.110;20.964;2023-05-17T00:50:41;6.38;;;5.75;;
58015;SDS011;43809;52.110;20.964;2023-05-17T00:52:42;5.43;;;4.90;;
58015;SDS011;43809;52.110;20.964;2023-05-17T00:54:42;5.25;;;4.72;;
58015;SDS011;43809;52.110;20.964;2023-05-17T00:56:42;4.47;;;3.97;;
58015;SDS011;43809;52.110;20.964;2023-05-17T00:58:43;4.30;;;3.90;;
58015;SDS011;43809;52.110;20.964;2023-05-17T01:03:04;7.43;;;5.15;;
58015;SDS011;43809;52.110;20.964;2023-05-17T01:05:04;6.03;;;4.57;;
58015;SDS011;43809;52.110;20.964;2023-05-17T01:07:05;6.63;;;5.20;;
58015;SDS011;43809;52.110;20.964;2023-05-17T01:09:05;5.05;;;4.25;;
58015;SDS011;43809;52.110;20.964;2023-05-17T01:13:31;4.45;;;4.05;;
58015;SDS011;43809;52.110;20.964;2023-05-17T01:15:33;4.10;;;3.50;;
58015;SDS011;43809;52.110;20.964;2023-05-17T01:22:13;9.27;;;8.38;;
58015;SDS011;43809;52.110;20.964;2023-05-17T01:26:38;8.00;;;7.20;;
58015;SDS011;43809;52.110;20.964;2023-05-17T01:28:39;9.13;;;7.50;;
58015;SDS011;43809;52.110;20.964;2023-05-17T01:30:40;8.20;;;7.03;;
58015;SDS011;43809;52.110;20.964;2023-05-17T01:32:42;8.13;;;7.32;;
58015;SDS011;43809;52.110;20.964;2023-05-17T01:34:43;7.03;;;6.32;;
58015;SDS011;43809;52.110;20.964;2023-05-17T01:36:43;6.93;;;6.30;;
58015;SDS011;43809;52.110;20.964;2023-05-17T01:38:46;7.45;;;5.82;;
58015;SDS011;43809;52.110;20.964;2023-05-17T01:42:56;8.30;;;6.03;;
58015;SDS011;43809;52.110;20.964;2023-05-17T01:45:10;5.78;;;5.15;;
58015;SDS011;43809;52.110;20.964;2023-05-17T01:47:17;5.15;;;4.53;;
58015;SDS011;43809;52.110;20.964;2023-05-17T01:49:23;6.32;;;5.70;;
58015;SDS011;43809;52.110;20.964;2023-05-17T01:51:24;5.95;;;5.35;;
58015;SDS011;43809;52.110;20.964;2023-05-17T01:53:29;6.30;;;5.50;;
58015;SDS011;43809;52.110;20.964;2023-05-17T01:55:40;6.03;;;5.40;;
58015;SDS011;43809;52.110;20.964;2023-05-17T01:57:48;4.95;;;4.45;;
58015;SDS011;43809;52.110;20.964;2023-05-17T01:59:50;5.68;;;5.18;;
58015;SDS011;43809;52.110;20.964;2023-05-17T02:01:54;4.60;;;4.20;;
58015;SDS011;43809;52.110;20.964;2023-05-17T02:03:56;4.97;;;4.25;;
58015;SDS011;43809;52.110;20.964;2023-05-17T02:05:56;4.13;;;3.67;;
58015;SDS011;43809;52.110;20.964;2023-05-17T02:07:56;4.67;;;4.23;;
58015;SDS011;43809;52.110;20.964;2023-05-17T02:09:56;5.20;;;4.70;;
58015;SDS011;43809;52.110;20.964;2023-05-17T02:11:57;8.67;;;6.80;;
58015;SDS011;43809;52.110;20.964;2023-05-17T02:13:57;8.13;;;7.30;;
58015;SDS011;43809;52.110;20.964;2023-05-17T02:16:01;7.40;;;6.65;;
58015;SDS011;43809;52.110;20.964;2023-05-17T02:18:01;9.27;;;8.10;;
58015;SDS011;43809;52.110;20.964;2023-05-17T02:20:09;8.85;;;7.78;;
58015;SDS011;43809;52.110;20.964;2023-05-17T02:22:10;9.55;;;7.93;;
58015;SDS011;43809;52.110;20.964;2023-05-17T02:24:10;8.45;;;7.43;;
58015;SDS011;43809;52.110;20.964;2023-05-17T02:26:11;8.88;;;7.97;;
58015;SDS011;43809;52.110;20.964;2023-05-17T02:28:11;10.03;;;8.57;;
58015;SDS011;43809;52.110;20.964;2023-05-17T02:30:11;9.93;;;8.90;;
58015;SDS011;43809;52.110;20.964;2023-05-17T02:32:13;11.15;;;9.38;;
58015;SDS011;43809;52.110;20.964;2023-05-17T02:34:13;10.97;;;9.43;;
58015;SDS011;43809;52.110;20.964;2023-05-17T02:36:13;11.20;;;9.37;;
58015;SDS011;43809;52.110;20.964;2023-05-17T02:38:13;8.90;;;7.97;;
58015;SDS011;43809;52.110;20.964;2023-05-17T02:40:13;7.70;;;6.87;;
58015;SDS011;43809;52.110;20.964;2023-05-17T02:42:14;9.55;;;8.63;;
58015;SDS011;43809;52.110;20.964;2023-05-17T02:44:14;9.73;;;8.65;;
58015;SDS011;43809;52.110;20.964;2023-05-17T02:46:14;8.68;;;7.25;;
58015;SDS011;43809;52.110;20.964;2023-05-17T02:48:14;8.70;;;7.80;;
58015;SDS011;43809;52.110;20.964;2023-05-17T02:50:14;10.87;;;9.30;;
58015;SDS011;43809;52.110;20.964;2023-05-17T02:52:15;12.30;;;10.32;;
58015;SDS011;43809;52.110;20.964;2023-05-17T02:54:15;11.85;;;10.60;;
58015;SDS011;43809;52.110;20.964;2023-05-17T02:56:15;13.27;;;10.50;;
58015;SDS011;43809;52.110;20.964;2023-05-17T02:58:15;11.57;;;9.70;;
58015;SDS011;43809;52.110;20.964;2023-05-17T03:00:17;9.20;;;8.30;;
58015;SDS011;43809;52.110;20.964;2023-05-17T03:02:17;8.20;;;7.25;;
58015;SDS011;43809;52.110;20.964;2023-05-17T03:04:17;6.93;;;6.07;;
58015;SDS011;43809;52.110;20.964;2023-05-17T03:06:19;6.90;;;6.13;;
58015;SDS011;43809;52.110;20.964;2023-05-17T03:08:19;6.55;;;5.85;;
58015;SDS011;43809;52.110;20.964;2023-05-17T03:10:20;7.72;;;6.93;;
58015;SDS011;43809;52.110;20.964;2023-05-17T03:12:20;8.93;;;7.53;;
58015;SDS011;43809;52.110;20.964;2023-05-17T03:14:20;8.67;;;7.30;;
58015;SDS011;43809;52.110;20.964;2023-05-17T03:16:20;10.32;;;8.50;;
58015;SDS011;43809;52.110;20.964;2023-05-17T03:18:20;10.60;;;9.27;;
58015;SDS011;43809;52.110;20.964;2023-05-17T03:20:21;13.33;;;10.87;;
58015;SDS011;43809;52.110;20.964;2023-05-17T03:22:21;11.93;;;10.27;;
58015;SDS011;43809;52.110;20.964;2023-05-17T03:24:21;11.17;;;9.37;;
58015;SDS011;43809;52.110;20.964;2023-05-17T03:26:22;9.52;;;8.52;;
58015;SDS011;43809;52.110;20.964;2023-05-17T03:28:23;11.82;;;10.13;;
58015;SDS011;43809;52.110;20.964;2023-05-17T03:30:23;14.20;;;11.20;;
58015;SDS011;43809;52.110;20.964;2023-05-17T03:32:23;14.07;;;11.30;;
58015;SDS011;43809;52.110;20.964;2023-05-17T03:34:23;13.13;;;10.77;;
58015;SDS011;43809;52.110;20.964;2023-05-17T03:36:23;16.83;;;12.18;;
58015;SDS011;43809;52.110;20.964;2023-05-17T03:38:24;14.50;;;11.45;;
58015;SDS011;43809;52.110;20.964;2023-05-17T03:40:24;10.52;;;8.85;;
58015;SDS011;43809;52.110;20.964;2023-05-17T03:42:24;11.90;;;9.93;;
58015;SDS011;43809;52.110;20.964;2023-05-17T03:44:25;11.63;;;9.17;;
58015;SDS011;43809;52.110;20.964;2023-05-17T03:46:25;11.55;;;9.55;;
58015;SDS011;43809;52.110;20.964;2023-05-17T03:48:25;11.45;;;9.95;;
58015;SDS011;43809;52.110;20.964;2023-05-17T03:50:25;13.75;;;11.10;;
58015;SDS011;43809;52.110;20.964;2023-05-17T03:52:26;12.27;;;10.23;;
58015;SDS011;43809;52.110;20.964;2023-05-17T03:54:26;12.05;;;10.30;;
58015;SDS011;43809;52.110;20.964;2023-05-17T03:56:26;10.83;;;9.20;;
58015;SDS011;43809;52.110;20.964;2023-05-17T03:58:26;11.52;;;10.27;;
58015;SDS011;43809;52.110;20.964;2023-05-17T04:00:26;11.03;;;9.40;;
58015;SDS011;43809;52.110;20.964;2023-05-17T04:02:27;11.47;;;9.30;;
58015;SDS011;43809;52.110;20.964;2023-05-17T04:04:27;12.13;;;9.77;;
58015;SDS011;43809;52.110;20.964;2023-05-17T04:06:27;10.83;;;9.67;;
58015;SDS011;43809;52.110;20.964;2023-05-17T04:08:27;10.40;;;9.23;;
58015;SDS011;43809;52.110;20.964;2023-05-17T04:10:27;12.87;;;9.70;;
58015;SDS011;43809;52.110;20.964;2023-05-17T04:12:29;11.77;;;9.35;;
58015;SDS011;43809;52.110;20.964;2023-05-17T04:14:29;11.35;;;9.13;;
58015;SDS011;43809;52.110;20.964;2023-05-17T04:16:29;12.90;;;9.57;;
58015;SDS011;43809;52.110;20.964;2023-05-17T04:18:32;11.93;;;9.30;;
58015;SDS011;43809;52.110;20.964;2023-05-17T04:20:32;10.88;;;8.82;;
58015;SDS011;43809;52.110;20.964;2023-05-17T04:22:32;10.00;;;7.95;;
58015;SDS011;43809;52.110;20.964;2023-05-17T04:24:33;11.20;;;9.80;;
58015;SDS011;43809;52.110;20.964;2023-05-17T04:26:33;11.13;;;9.20;;
58015;SDS011;43809;52.110;20.964;2023-05-17T04:28:33;10.77;;;9.25;;
58015;SDS011;43809;52.110;20.964;2023-05-17T04:30:33;11.25;;;8.52;;
58015;SDS011;43809;52.110;20.964;2023-05-17T04:32:34;11.53;;;9.50;;
58015;SDS011;43809;52.110;20.964;2023-05-17T04:34:34;10.40;;;8.52;;
58015;SDS011;43809;52.110;20.964;2023-05-17T04:36:35;11.52;;;9.05;;
58015;SDS011;43809;52.110;20.964;2023-05-17T04:38:35;10.03;;;8.20;;
58015;SDS011;43809;52.110;20.964;2023-05-17T04:40:37;8.70;;;7.80;;
58015;SDS011;43809;52.110;20.964;2023-05-17T04:42:38;11.90;;;9.05;;
58015;SDS011;43809;52.110;20.964;2023-05-17T04:44:38;9.63;;;8.63;;
58015;SDS011;43809;52.110;20.964;2023-05-17T04:46:38;13.37;;;9.80;;
58015;SDS011;43809;52.110;20.964;2023-05-17T04:48:39;10.80;;;9.38;;
58015;SDS011;43809;52.110;20.964;2023-05-17T04:50:43;10.13;;;8.63;;
58015;SDS011;43809;52.110;20.964;2023-05-17T04:52:45;11.30;;;8.75;;
58015;SDS011;43809;52.110;20.964;2023-05-17T04:54:45;11.60;;;8.95;;
58015;SDS011;43809;52.110;20.964;2023-05-17T04:56:46;9.40;;;7.97;;
58015;SDS011;43809;52.110;20.964;2023-05-17T04:58:46;9.27;;;7.77;;
58015;SDS011;43809;52.110;20.964;2023-05-17T05:00:46;9.60;;;7.63;;
58015;SDS011;43809;52.110;20.964;2023-05-17T05:02:46;9.48;;;7.63;;
58015;SDS011;43809;52.110;20.964;2023-05-17T05:04:47;9.68;;;7.97;;
58015;SDS011;43809;52.110;20.964;2023-05-17T05:06:47;11.03;;;9.10;;
58015;SDS011;43809;52.110;20.964;2023-05-17T05:08:47;11.20;;;8.90;;
58015;SDS011;43809;52.110;20.964;2023-05-17T05:10:47;11.52;;;9.40;;
58015;SDS011;43809;52.110;20.964;2023-05-17T05:12:48;9.43;;;8.30;;
58015;SDS011;43809;52.110;20.964;2023-05-17T05:14:48;12.60;;;9.85;;
58015;SDS011;43809;52.110;20.964;2023-05-17T05:16:48;10.13;;;8.77;;
58015;SDS011;43809;52.110;20.964;2023-05-17T05:18:49;10.63;;;9.33;;
58015;SDS011;43809;52.110;20.964;2023-05-17T05:20:49;10.38;;;9.30;;
58015;SDS011;43809;52.110;20.964;2023-05-17T05:22:49;16.63;;;11.13;;
58015;SDS011;43809;52.110;20.964;2023-05-17T05:24:49;12.27;;;9.77;;
58015;SDS011;43809;52.110;20.964;2023-05-17T05:26:50;10.98;;;9.02;;
58015;SDS011;43809;52.110;20.964;2023-05-17T05:28:50;11.52;;;8.73;;
58015;SDS011;43809;52.110;20.964;2023-05-17T05:30:55;10.35;;;8.63;;
58015;SDS011;43809;52.110;20.964;2023-05-17T05:32:55;10.98;;;8.30;;
58015;SDS011;43809;52.110;20.964;2023-05-17T05:34:56;10.15;;;7.78;;
58015;SDS011;43809;52.110;20.964;2023-05-17T05:36:56;9.70;;;8.15;;
58015;SDS011;43809;52.110;20.964;2023-05-17T05:38:56;13.18;;;8.95;;
58015;SDS011;43809;52.110;20.964;2023-05-17T05:40:56;11.23;;;8.87;;
58015;SDS011;43809;52.110;20.964;2023-05-17T05:42:56;9.57;;;8.57;;
58015;SDS011;43809;52.110;20.964;2023-05-17T05:44:57;9.10;;;8.10;;
58015;SDS011;43809;52.110;20.964;2023-05-17T05:46:57;9.23;;;7.90;;
58015;SDS011;43809;52.110;20.964;2023-05-17T05:48:57;9.07;;;8.03;;
58015;SDS011;43809;52.110;20.964;2023-05-17T05:50:59;8.80;;;7.70;;
58015;SDS011;43809;52.110;20.964;2023-05-17T05:52:59;9.18;;;7.88;;
58015;SDS011;43809;52.110;20.964;2023-05-17T05:55:00;8.52;;;7.53;;
58015;SDS011;43809;52.110;20.964;2023-05-17T05:57:00;8.95;;;7.80;;
58015;SDS011;43809;52.110;20.964;2023-05-17T05:59:00;8.47;;;7.13;;
58015;SDS011;43809;52.110;20.964;2023-05-17T06:01:01;9.38;;;7.80;;
58015;SDS011;43809;52.110;20.964;2023-05-17T06:03:01;7.80;;;7.00;;
58015;SDS011;43809;52.110;20.964;2023-05-17T06:05:02;8.18;;;7.25;;
58015;SDS011;43809;52.110;20.964;2023-05-17T06:07:02;9.05;;;7.22;;
58015;SDS011;43809;52.110;20.964;2023-05-17T06:09:03;7.75;;;6.50;;
58015;SDS011;43809;52.110;20.964;2023-05-17T06:11:05;8.15;;;6.70;;
58015;SDS011;43809;52.110;20.964;2023-05-17T06:13:06;9.10;;;7.18;;
58015;SDS011;43809;52.110;20.964;2023-05-17T06:15:06;7.90;;;6.72;;
58015;SDS011;43809;52.110;20.964;2023-05-17T06:17:06;8.55;;;6.35;;
58015;SDS011;43809;52.110;20.964;2023-05-17T06:19:07;6.85;;;6.05;;
58015;SDS011;43809;52.110;20.964;2023-05-17T06:21:07;7.47;;;6.17;;
58015;SDS011;43809;52.110;20.964;2023-05-17T06:23:07;10.20;;;7.70;;
58015;SDS011;43809;52.110;20.964;2023-05-17T06:25:07;8.43;;;6.90;;
58015;SDS011;43809;52.110;20.964;2023-05-17T06:27:09;7.50;;;6.77;;
58015;SDS011;43809;52.110;20.964;2023-05-17T06:29:09;8.73;;;7.17;;
58015;SDS011;43809;52.110;20.964;2023-05-17T06:31:09;7.88;;;7.07;;
58015;SDS011;43809;52.110;20.964;2023-05-17T06:33:09;10.30;;;7.33;;
58015;SDS011;43809;52.110;20.964;2023-05-17T06:35:10;8.10;;;7.18;;
58015;SDS011;43809;52.110;20.964;2023-05-17T06:37:10;9.52;;;7.40;;
58015;SDS011;43809;52.110;20.964;2023-05-17T06:39:10;10.20;;;7.60;;
58015;SDS011;43809;52.110;20.964;2023-05-17T06:41:10;7.50;;;6.53;;
58015;SDS011;43809;52.110;20.964;2023-05-17T06:43:11;8.73;;;7.25;;
58015;SDS011;43809;52.110;20.964;2023-05-17T06:45:13;7.93;;;7.13;;
58015;SDS011;43809;52.110;20.964;2023-05-17T06:47:13;8.35;;;7.07;;
58015;SDS011;43809;52.110;20.964;2023-05-17T06:49:13;7.80;;;7.00;;
58015;SDS011;43809;52.110;20.964;2023-05-17T06:51:13;7.50;;;6.67;;
58015;SDS011;43809;52.110;20.964;2023-05-17T06:53:14;7.83;;;6.70;;
58015;SDS011;43809;52.110;20.964;2023-05-17T06:55:14;9.27;;;7.32;;
58015;SDS011;43809;52.110;20.964;2023-05-17T06:57:14;9.35;;;7.47;;
58015;SDS011;43809;52.110;20.964;2023-05-17T06:59:14;9.65;;;8.65;;
58015;SDS011;43809;52.110;20.964;2023-05-17T07:01:15;9.32;;;7.78;;
58015;SDS011;43809;52.110;20.964;2023-05-17T07:03:15;7.60;;;6.90;;
58015;SDS011;43809;52.110;20.964;2023-05-17T07:05:18;9.43;;;7.73;;
58015;SDS011;43809;52.110;20.964;2023-05-17T07:07:18;7.88;;;7.07;;
58015;SDS011;43809;52.110;20.964;2023-05-17T07:09:21;7.93;;;6.57;;
58015;SDS011;43809;52.110;20.964;2023-05-17T07:11:21;7.53;;;6.70;;
58015;SDS011;43809;52.110;20.964;2023-05-17T07:13:21;8.43;;;7.40;;
58015;SDS011;43809;52.110;20.964;2023-05-17T07:15:22;7.80;;;7.00;;
58015;SDS011;43809;52.110;20.964;2023-05-17T07:17:22;9.23;;;6.85;;
58015;SDS011;43809;52.110;20.964;2023-05-17T07:19:22;8.40;;;6.93;;
58015;SDS011;43809;52.110;20.964;2023-05-17T07:21:25;9.65;;;7.45;;
58015;SDS011;43809;52.110;20.964;2023-05-17T07:23:25;8.40;;;7.22;;
58015;SDS011;43809;52.110;20.964;2023-05-17T07:25:25;9.67;;;8.03;;
58015;SDS011;43809;52.110;20.964;2023-05-17T07:27:25;10.63;;;7.50;;
58015;SDS011;43809;52.110;20.964;2023-05-17T07:29:26;11.73;;;8.17;;
58015;SDS011;43809;52.110;20.964;2023-05-17T07:31:26;10.17;;;8.27;;
58015;SDS011;43809;52.110;20.964;2023-05-17T07:33:26;10.33;;;7.93;;
58015;SDS011;43809;52.110;20.964;2023-05-17T07:35:27;9.90;;;8.35;;
58015;SDS011;43809;52.110;20.964;2023-05-17T07:37:27;10.27;;;8.43;;
58015;SDS011;43809;52.110;20.964;2023-05-17T07:39:27;10.98;;;8.50;;
58015;SDS011;43809;52.110;20.964;2023-05-17T07:41:27;10.40;;;8.43;;
58015;SDS011;43809;52.110;20.964;2023-05-17T07:43:28;9.77;;;7.90;;
58015;SDS011;43809;52.110;20.964;2023-05-17T07:45:28;8.25;;;6.82;;
58015;SDS011;43809;52.110;20.964;2023-05-17T07:47:28;7.82;;;7.00;;
58015;SDS011;43809;52.110;20.964;2023-05-17T07:49:29;7.90;;;7.10;;
58015;SDS011;43809;52.110;20.964;2023-05-17T07:51:29;9.27;;;7.55;;
58015;SDS011;43809;52.110;20.964;2023-05-17T07:53:30;8.45;;;6.82;;
58015;SDS011;43809;52.110;20.964;2023-05-17T07:55:30;8.38;;;6.78;;
58015;SDS011;43809;52.110;20.964;2023-05-17T07:57:31;7.77;;;6.30;;
58015;SDS011;43809;52.110;20.964;2023-05-17T07:59:31;8.25;;;7.07;;
58015;SDS011;43809;52.110;20.964;2023-05-17T08:01:31;8.13;;;6.90;;
58015;SDS011;43809;52.110;20.964;2023-05-17T08:03:31;8.15;;;7.05;;
58015;SDS011;43809;52.110;20.964;2023-05-17T08:05:33;8.00;;;6.60;;
58015;SDS011;43809;52.110;20.964;2023-05-17T08:07:33;8.55;;;6.72;;
58015;SDS011;43809;52.110;20.964;2023-05-17T08:09:33;8.07;;;6.63;;
58015;SDS011;43809;52.110;20.964;2023-05-17T08:11:45;7.37;;;6.13;;
58015;SDS011;43809;52.110;20.964;2023-05-17T08:13:45;7.75;;;6.22;;
58015;SDS011;43809;52.110;20.964;2023-05-17T08:15:45;9.48;;;7.75;;
58015;SDS011;43809;52.110;20.964;2023-05-17T08:17:47;7.93;;;6.30;;
58015;SDS011;43809;52.110;20.964;2023-05-17T08:19:47;9.10;;;7.10;;
58015;SDS011;43809;52.110;20.964;2023-05-17T08:21:47;7.83;;;6.87;;
58015;SDS011;43809;52.110;20.964;2023-05-17T08:23:48;7.88;;;6.60;;
58015;SDS011;43809;52.110;20.964;2023-05-17T08:25:48;7.13;;;6.43;;
58015;SDS011;43809;52.110;20.964;2023-05-17T08:27:48;7.10;;;6.37;;
58015;SDS011;43809;52.110;20.964;2023-05-17T08:29:48;7.27;;;5.90;;
58015;SDS011;43809;52.110;20.964;2023-05-17T08:31:50;7.25;;;5.97;;
58015;SDS011;43809;52.110;20.964;2023-05-17T08:33:51;6.68;;;6.07;;
58015;SDS011;43809;52.110;20.964;2023-05-17T08:35:51;6.45;;;5.53;;
58015;SDS011;43809;52.110;20.964;2023-05-17T08:37:54;6.93;;;6.22;;
58015;SDS011;43809;52.110;20.964;2023-05-17T08:39:54;6.05;;;5.43;;
58015;SDS011;43809;52.110;20.964;2023-05-17T08:41:54;7.10;;;5.63;;
58015;SDS011;43809;52.110;20.964;2023-05-17T08:43:58;6.97;;;6.25;;
58015;SDS011;43809;52.110;20.964;2023-05-17T08:45:58;6.78;;;6.03;;
58015;SDS011;43809;52.110;20.964;2023-05-17T08:47:59;7.20;;;6.10;;
58015;SDS011;43809;52.110;20.964;2023-05-17T08:50:00;8.02;;;6.28;;
58015;SDS011;43809;52.110;20.964;2023-05-17T08:52:03;7.45;;;6.63;;
58015;SDS011;43809;52.110;20.964;2023-05-17T08:54:08;7.28;;;6.00;;
58015;SDS011;43809;52.110;20.964;2023-05-17T08:56:10;6.00;;;5.23;;
58015;SDS011;43809;52.110;20.964;2023-05-17T08:58:11;7.13;;;6.43;;
58015;SDS011;43809;52.110;20.964;2023-05-17T09:00:12;6.70;;;5.70;;
58015;SDS011;43809;52.110;20.964;2023-05-17T09:02:15;6.93;;;5.60;;
58015;SDS011;43809;52.110;20.964;2023-05-17T09:04:15;6.43;;;5.72;;
58015;SDS011;43809;52.110;20.964;2023-05-17T09:06:16;6.60;;;5.65;;
58015;SDS011;43809;52.110;20.964;2023-05-17T09:08:20;6.70;;;5.40;;
58015;SDS011;43809;52.110;20.964;2023-05-17T09:10:20;6.68;;;5.90;;
58015;SDS011;43809;52.110;20.964;2023-05-17T09:12:20;7.45;;;5.68;;
58015;SDS011;43809;52.110;20.964;2023-05-17T09:14:21;6.60;;;5.60;;
58015;SDS011;43809;52.110;20.964;2023-05-17T09:16:21;6.00;;;5.40;;
58015;SDS011;43809;52.110;20.964;2023-05-17T09:18:28;6.55;;;5.20;;
58015;SDS011;43809;52.110;20.964;2023-05-17T09:20:31;6.03;;;4.82;;
58015;SDS011;43809;52.110;20.964;2023-05-17T09:22:35;5.85;;;5.25;;
58015;SDS011;43809;52.110;20.964;2023-05-17T09:24:36;5.82;;;4.65;;
58015;SDS011;43809;52.110;20.964;2023-05-17T09:26:40;7.78;;;5.22;;
58015;SDS011;43809;52.110;20.964;2023-05-17T09:28:40;7.00;;;6.22;;
58015;SDS011;43809;52.110;20.964;2023-05-17T09:30:41;8.48;;;6.50;;
58015;SDS011;43809;52.110;20.964;2023-05-17T09:32:42;5.75;;;5.25;;
58015;SDS011;43809;52.110;20.964;2023-05-17T09:34:44;7.53;;;6.18;;
58015;SDS011;43809;52.110;20.964;2023-05-17T09:36:45;8.10;;;6.60;;
58015;SDS011;43809;52.110;20.964;2023-05-17T09:38:52;7.33;;;6.13;;
58015;SDS011;43809;52.110;20.964;2023-05-17T09:40:53;9.20;;;7.75;;
58015;SDS011;43809;52.110;20.964;2023-05-17T09:42:53;7.50;;;6.70;;
58015;SDS011;43809;52.110;20.964;2023-05-17T09:44:54;9.13;;;7.00;;
58015;SDS011;43809;52.110;20.964;2023-05-17T09:46:58;7.80;;;6.80;;
58015;SDS011;43809;52.110;20.964;2023-05-17T09:49:00;8.17;;;7.33;;
58015;SDS011;43809;52.110;20.964;2023-05-17T09:51:00;7.05;;;6.35;;
58015;SDS011;43809;52.110;20.964;2023-05-17T09:53:01;7.70;;;6.57;;
58015;SDS011;43809;52.110;20.964;2023-05-17T09:55:01;7.40;;;6.37;;
58015;SDS011;43809;52.110;20.964;2023-05-17T09:57:01;8.68;;;6.90;;
58015;SDS011;43809;52.110;20.964;2023-05-17T09:59:10;9.63;;;7.43;;
58015;SDS011;43809;52.110;20.964;2023-05-17T10:01:11;11.90;;;9.15;;
58015;SDS011;43809;52.110;20.964;2023-05-17T10:03:11;11.23;;;9.00;;
58015;SDS011;43809;52.110;20.964;2023-05-17T10:05:12;10.50;;;9.10;;
58015;SDS011;43809;52.110;20.964;2023-05-17T10:07:14;12.82;;;9.18;;
58015;SDS011;43809;52.110;20.964;2023-05-17T10:09:16;12.50;;;9.02;;
58015;SDS011;43809;52.110;20.964;2023-05-17T10:11:17;12.15;;;9.48;;
58015;SDS011;43809;52.110;20.964;2023-05-17T10:13:22;13.05;;;9.77;;
58015;SDS011;43809;52.110;20.964;2023-05-17T10:15:23;13.88;;;9.45;;
58015;SDS011;43809;52.110;20.964;2023-05-17T10:17:28;13.20;;;8.95;;
58015;SDS011;43809;52.110;20.964;2023-05-17T10:19:28;11.38;;;9.60;;
58015;SDS011;43809;52.110;20.964;2023-05-17T10:21:29;13.52;;;10.55;;
58015;SDS011;43809;52.110;20.964;2023-05-17T10:23:32;12.65;;;9.57;;
58015;SDS011;43809;52.110;20.964;2023-05-17T10:25:33;13.73;;;9.75;;
58015;SDS011;43809;52.110;20.964;2023-05-17T10:27:33;15.13;;;10.60;;
58015;SDS011;43809;52.110;20.964;2023-05-17T10:29:34;13.88;;;10.57;;
58015;SDS011;43809;52.110;20.964;2023-05-17T10:31:35;11.13;;;9.32;;
58015;SDS011;43809;52.110;20.964;2023-05-17T10:33:35;14.13;;;9.80;;
58015;SDS011;43809;52.110;20.964;2023-05-17T10:35:36;12.93;;;9.45;;
58015;SDS011;43809;52.110;20.964;2023-05-17T10:37:38;12.02;;;8.13;;
58015;SDS011;43809;52.110;20.964;2023-05-17T10:39:38;13.95;;;10.27;;
58015;SDS011;43809;52.110;20.964;2023-05-17T10:41:43;17.00;;;10.65;;
58015;SDS011;43809;52.110;20.964;2023-05-17T10:43:43;15.07;;;10.98;;
58015;SDS011;43809;52.110;20.964;2023-05-17T10:45:44;15.45;;;11.07;;
58015;SDS011;43809;52.110;20.964;2023-05-17T10:47:45;14.77;;;10.55;;
58015;SDS011;43809;52.110;20.964;2023-05-17T10:49:45;16.05;;;10.50;;
58015;SDS011;43809;52.110;20.964;2023-05-17T10:51:46;14.77;;;10.25;;
58015;SDS011;43809;52.110;20.964;2023-05-17T10:56:08;14.35;;;10.50;;
58015;SDS011;43809;52.110;20.964;2023-05-17T11:00:09;18.42;;;11.50;;
58015;SDS011;43809;52.110;20.964;2023-05-17T11:02:21;15.85;;;11.13;;
58015;SDS011;43809;52.110;20.964;2023-05-17T11:04:23;16.38;;;10.80;;
58015;SDS011;43809;52.110;20.964;2023-05-17T11:06:42;16.50;;;11.18;;
58015;SDS011;43809;52.110;20.964;2023-05-17T11:08:43;18.48;;;10.73;;
58015;SDS011;43809;52.110;20.964;2023-05-17T11:13:21;15.80;;;9.52;;
58015;SDS011;43809;52.110;20.964;2023-05-17T11:15:24;14.35;;;9.52;;
58015;SDS011;43809;52.110;20.964;2023-05-17T11:17:26;14.07;;;9.52;;
58015;SDS011;43809;52.110;20.964;2023-05-17T11:19:26;13.97;;;9.47;;
58015;SDS011;43809;52.110;20.964;2023-05-17T11:21:27;14.90;;;9.17;;
58015;SDS011;43809;52.110;20.964;2023-05-17T11:23:28;12.52;;;8.57;;
58015;SDS011;43809;52.110;20.964;2023-05-17T11:27:48;17.17;;;8.63;;
58015;SDS011;43809;52.110;20.964;2023-05-17T11:29:48;11.52;;;8.00;;
58015;SDS011;43809;52.110;20.964;2023-05-17T11:31:50;15.23;;;8.43;;
58015;SDS011;43809;52.110;20.964;2023-05-17T11:33:50;11.18;;;8.07;;
58015;SDS011;43809;52.110;20.964;2023-05-17T11:35:53;13.45;;;8.23;;
58015;SDS011;43809;52.110;20.964;2023-05-17T11:38:10;13.75;;;8.18;;
58015;SDS011;43809;52.110;20.964;2023-05-17T11:40:17;11.50;;;8.00;;
58015;SDS011;43809;52.110;20.964;2023-05-17T11:42:23;12.57;;;8.43;;
58015;SDS011;43809;52.110;20.964;2023-05-17T11:44:31;12.25;;;7.90;;
58015;SDS011;43809;52.110;20.964;2023-05-17T11:46:31;12.00;;;7.78;;
58015;SDS011;43809;52.110;20.964;2023-05-17T11:48:32;12.60;;;8.43;;
58015;SDS011;43809;52.110;20.964;2023-05-17T11:50:34;12.55;;;7.95;;
58015;SDS011;43809;52.110;20.964;2023-05-17T11:52:38;11.93;;;7.85;;
58015;SDS011;43809;52.110;20.964;2023-05-17T11:54:41;10.98;;;8.13;;
58015;SDS011;43809;52.110;20.964;2023-05-17T11:56:42;11.88;;;7.82;;
58015;SDS011;43809;52.110;20.964;2023-05-17T11:58:42;11.93;;;7.35;;
58015;SDS011;43809;52.110;20.964;2023-05-17T12:02:46;14.15;;;8.45;;
58015;SDS011;43809;52.110;20.964;2023-05-17T12:04:46;11.38;;;7.65;;
58015;SDS011;43809;52.110;20.964;2023-05-17T12:06:46;11.37;;;6.77;;
58015;SDS011;43809;52.110;20.964;2023-05-17T12:08:46;10.90;;;7.10;;
58015;SDS011;43809;52.110;20.964;2023-05-17T12:10:50;13.13;;;7.55;;
58015;SDS011;43809;52.110;20.964;2023-05-17T12:12:56;12.95;;;7.68;;
58015;SDS011;43809;52.110;20.964;2023-05-17T12:14:56;9.60;;;7.07;;
58015;SDS011;43809;52.110;20.964;2023-05-17T12:16:57;11.32;;;7.55;;
58015;SDS011;43809;52.110;20.964;2023-05-17T12:18:58;10.38;;;6.57;;
58015;SDS011;43809;52.110;20.964;2023-05-17T12:20:58;11.47;;;7.13;;
58015;SDS011;43809;52.110;20.964;2023-05-17T12:22:59;12.95;;;7.35;;